Time;durP1;ratioP1;P1;durP2;ratioP2;P2;SDS_P1;SDS_P2;PMS_P1;PMS_P2;Temp;Humidity;BMP_temperature;BMP_pressure;BME280_temperature;BME280_humidity;BME280_pressure;Samples;Min_cycle;Max_cycle;Signal;HPM_P1;HPM_P2
2023/12/31 00:01:10;;;;;;;;;;;;;;;;;;5024368;27;58740;-74
2023/12/31 00:03:35;;;;;;;;;;;;;;;;;;5022796;28;59483;-71
2023/12/31 00:06:00;;;;;;;;;;;;;;;;;;5022348;28;59423;-72
2023/12/31 00:08:25;;;;;;;;;;;;;;;;;;5022939;28;58762;-71
2023/12/31 00:10:50;;;;;;;;;;;;;;;;;;5024890;28;59784;-72
2023/12/31 00:13:15;;;;;;;;;;;;;;;;;;5023709;28;58447;-72
2023/12/31 00:15:40;;;;;;;;;;;;;;;;;;5023118;28;59557;-72
2023/12/31 00:18:05;;;;;;;;;;;;;;;;;;5021309;28;58934;-74
2023/12/31 00:20:30;;;;;;;;;;;;;;;;;;5023735;28;59114;-72
2023/12/31 00:22:56;;;;;;;;;;;;;;;;;;5024779;28;59336;-72
2023/12/31 00:25:21;;;;;;;;;;;;;;;;;;5022143;28;58905;-71
2023/12/31 00:27:46;;;;;;;;;;;;;;;;;;5021525;28;58740;-72
2023/12/31 00:30:12;;;;;;;;;;;;;;;;;;5023448;28;59748;-72
2023/12/31 00:32:37;;;;;;;;;;;;;;;;;;5024374;27;58960;-74
2023/12/31 00:35:02;;;;;;;;;;;;;;;;;;5023060;28;59352;-74
2023/12/31 00:37:27;;;;;;;;;;;;;;;;;;5022174;28;59835;-73
2023/12/31 00:39:52;;;;;;;;;;;;;;;;;;5021665;28;58541;-74
2023/12/31 00:42:17;;;;;;;;;;;;;;;;;;5020286;28;60091;-74
2023/12/31 00:44:42;;;;;;;;;;;;;;;;;;5021719;28;58937;-78
2023/12/31 00:47:07;;;;;;;;;;;;;;;;;;5022163;28;58897;-75
2023/12/31 00:49:32;;;;;;;;;;;;;;;;;;5022621;28;59418;-77
2023/12/31 00:51:57;;;;;;;;;;;;;;;;;;5021785;28;77994;-76
2023/12/31 00:54:23;;;;;;;;;;;;;;;;;;5022968;28;58427;-78
2023/12/31 00:56:48;;;;;;;;;;;;;;;;;;5019929;28;58864;-76
2023/12/31 00:59:13;;;;;;;;;;;;;;;;;;5024967;28;58271;-80
2023/12/31 01:01:38;;;;;;;;;;;;;;;;;;5022273;28;58750;-79
2023/12/31 01:04:03;;;;;;;;;;;;;;;;;;5021484;28;58895;-75
2023/12/31 01:06:28;;;;;;;;;;;;;;;;;;5022245;28;58768;-81
2023/12/31 01:08:54;;;;;;;;;;;;;;;;;;5021170;28;58483;-85
2023/12/31 01:11:20;;;;;;;;;;;;;;;;;;5020773;27;59053;-83
2023/12/31 01:13:45;;;;;;;;;;;;;;;;;;5023278;28;59325;-78
2023/12/31 01:16:10;;;;;;;;;;;;;;;;;;5022680;28;58479;-78
2023/12/31 01:18:36;;;;;;;;;;;;;;;;;;5021183;28;58665;-78
2023/12/31 01:21:01;;;;;;;;;;;;;;;;;;5021321;28;61130;-78
2023/12/31 01:23:26;;;;;;;;;;;;;;;;;;5020490;28;59131;-79
2023/12/31 01:25:51;;;;;;;;;;;;;;;;;;5022734;28;58476;-80
2023/12/31 01:28:16;;;;;;;;;;;;;;;;;;5026989;28;58987;-81
2023/12/31 01:30:41;;;;;;;;;;;;;;;;;;5028040;28;58858;-78
2023/12/31 01:33:07;;;;;;;;;;;;;;;;;;5028443;27;58701;-81
2023/12/31 01:35:32;;;;;;;;;;;;;;;;;;5029273;28;58833;-77
2023/12/31 01:37:57;;;;;;;;;;;;;;;;;;5029507;28;58910;-77
2023/12/31 01:40:22;;;;;;;;;;;;;;;;;;5027182;27;58545;-85
2023/12/31 01:42:47;;;;;;;;;;;;;;;;;;5025819;28;59735;-80
2023/12/31 01:45:12;;;;;;;;;;;;;;;;;;5028544;28;58778;-78
2023/12/31 01:47:37;;;;;;;;;;;;;;;;;;5028655;28;59581;-81
2023/12/31 01:50:02;;;;;;;;;;;;;;;;;;5029099;28;59392;-80
2023/12/31 01:52:28;;;;;;;;;;;;;;;;;;5027203;28;58792;-82
2023/12/31 01:54:53;;;;;;;;;;;;;;;;;;5028115;27;60272;-82
2023/12/31 01:57:18;;;;;;;;;;;;;;;;;;5026927;28;59678;-77
2023/12/31 01:59:43;;;;;;;;;;;;;;;;;;5028611;28;59445;-78
2023/12/31 02:02:08;;;;;;;;;;;;;;;;;;5028500;28;59239;-80
2023/12/31 02:04:33;;;;;;;;;;;;;;;;;;5027382;28;58928;-79
2023/12/31 02:06:58;;;;;;;;;;;;;;;;;;5028351;28;59619;-82
2023/12/31 02:09:23;;;;;;;;;;;;;;;;;;5025426;28;59503;-86
2023/12/31 02:11:49;;;;;;;;;;;;;;;;;;5028208;28;58890;-80
2023/12/31 02:14:14;;;;;;;;;;;;;;;;;;5029037;28;59087;-86
2023/12/31 02:16:39;;;;;;;;;;;;;;;;;;5027949;28;58744;-81
2023/12/31 02:19:05;;;;;;;;;;;;;;;;;;5025641;27;58459;-79
2023/12/31 02:21:30;;;;;;;;;;;;;;;;;;5027723;27;59067;-77
2023/12/31 02:23:55;;;;;;;;;;;;;;;;;;5027373;27;58776;-79
2023/12/31 02:26:20;;;;;;;;;;;;;;;;;;5028928;28;58726;-77
2023/12/31 02:28:45;;;;;;;;;;;;;;;;;;5027591;28;58962;-77
2023/12/31 02:31:10;;;;;;;;;;;;;;;;;;5028690;28;59034;-77
2023/12/31 02:33:35;;;;;;;;;;;;;;;;;;5027315;27;59392;-78
2023/12/31 02:36:00;;;;;;;;;;;;;;;;;;5027570;27;59053;-76
2023/12/31 02:38:25;;;;;;;;;;;;;;;;;;5027739;28;58420;-81
2023/12/31 02:40:50;;;;;;;;;;;;;;;;;;5026703;28;59551;-80
2023/12/31 02:43:15;;;;;;;;;;;;;;;;;;5023457;28;58344;-79
2023/12/31 02:45:41;;;;;;;;;;;;;;;;;;5018747;28;59337;-74
2023/12/31 02:48:06;;;;;;;;;;;;;;;;;;5016986;27;59913;-73
2023/12/31 02:50:31;;;;;;;;;;;;;;;;;;5024087;27;58802;-71
2023/12/31 02:52:56;;;;;;;;;;;;;;;;;;5018401;28;59558;-74
2023/12/31 02:55:22;;;;;;;;;;;;;;;;;;5015816;28;59852;-72
2023/12/31 02:57:47;;;;;;;;;;;;;;;;;;5019311;28;58521;-72
2023/12/31 03:00:12;;;;;;;;;;;;;;;;;;5020500;28;59475;-72
2023/12/31 03:02:37;;;;;;;;;;;;;;;;;;5020338;27;59879;-73
2023/12/31 03:05:02;;;;;;;;;;;;;;;;;;5021771;28;59683;-72
2023/12/31 03:07:27;;;;;;;;;;;;;;;;;;5017610;28;59275;-73
2023/12/31 03:09:52;;;;;;;;;;;;;;;;;;5026746;28;58739;-71
2023/12/31 03:12:17;;;;;;;;;;;;;;;;;;5018650;28;59364;-72
2023/12/31 03:14:42;;;;;;;;;;;;;;;;;;5016021;27;59006;-70
2023/12/31 03:17:07;;;;;;;;;;;;;;;;;;5021615;28;58852;-70
2023/12/31 03:19:35;;;;;;;;;;;;;;;;;;5014851;28;58608;-70
2023/12/31 03:22:00;;;;;;;;;;;;;;;;;;5021209;28;59855;-70
2023/12/31 03:24:25;;;;;;;;;;;;;;;;;;5017727;28;60365;-71
2023/12/31 03:26:50;;;;;;;;;;;;;;;;;;5019029;28;59848;-70
2023/12/31 03:29:15;;;;;;;;;;;;;;;;;;5017423;28;58570;-71
2023/12/31 03:31:40;;;;;;;;;;;;;;;;;;5022418;28;59632;-70
2023/12/31 03:34:06;;;;;;;;;;;;;;;;;;5019913;28;58796;-71
2023/12/31 03:36:31;;;;;;;;;;;;;;;;;;5020580;28;58369;-70
2023/12/31 03:38:57;;;;;;;;;;;;;;;;;;5021075;28;59480;-71
2023/12/31 03:41:22;;;;;;;;;;;;;;;;;;5018025;27;59667;-71
2023/12/31 03:43:47;;;;;;;;;;;;;;;;;;5018504;28;58567;-70
2023/12/31 03:46:12;;;;;;;;;;;;;;;;;;5018108;28;58637;-70
2023/12/31 03:48:37;;;;;;;;;;;;;;;;;;5019192;28;58429;-70
2023/12/31 03:51:02;;;;;;;;;;;;;;;;;;5022737;28;58743;-72
2023/12/31 03:53:27;;;;;;;;;;;;;;;;;;5019318;28;59428;-70
2023/12/31 03:55:52;;;;;;;;;;;;;;;;;;5017523;28;58558;-69
2023/12/31 03:58:17;;;;;;;;;;;;;;;;;;5017064;27;60440;-70
2023/12/31 04:00:43;;;;;;;;;;;;;;;;;;5020080;28;59019;-71
2023/12/31 04:03:08;;;;;;;;;;;;;;;;;;5020202;28;58399;-71
2023/12/31 04:05:33;;;;;;;;;;;;;;;;;;5016841;27;59903;-70
2023/12/31 04:07:59;;;;;;;;;;;;;;;;;;5024770;28;58458;-70
2023/12/31 04:10:24;;;;;;;;;;;;;;;;;;5016824;28;58713;-71
2023/12/31 04:12:49;;;;;;;;;;;;;;;;;;5015545;27;59770;-70
2023/12/31 04:15:14;;;;;;;;;;;;;;;;;;5023259;28;59160;-70
2023/12/31 04:17:40;;;;;;;;;;;;;;;;;;5016792;28;60347;-70
2023/12/31 04:20:05;;;;;;;;;;;;;;;;;;5018518;28;58934;-70
2023/12/31 04:22:30;;;;;;;;;;;;;;;;;;5021047;27;58498;-70
2023/12/31 04:24:55;;;;;;;;;;;;;;;;;;5021562;27;59377;-70
2023/12/31 04:27:21;;;;;;;;;;;;;;;;;;5021051;28;58831;-70
2023/12/31 04:29:46;;;;;;;;;;;;;;;;;;5015723;28;59281;-72
2023/12/31 04:32:11;;;;;;;;;;;;;;;;;;5018460;28;59658;-69
2023/12/31 04:34:36;;;;;;;;;;;;;;;;;;5019287;28;58826;-70
2023/12/31 04:37:01;;;;;;;;;;;;;;;;;;5020083;27;58966;-70
2023/12/31 04:39:26;;;;;;;;;;;;;;;;;;5018204;27;58974;-70
2023/12/31 04:41:51;;;;;;;;;;;;;;;;;;5019078;28;58450;-71
2023/12/31 04:44:16;;;;;;;;;;;;;;;;;;5019159;27;60501;-72
2023/12/31 04:46:41;;;;;;;;;;;;;;;;;;5014486;28;59419;-70
2023/12/31 04:49:06;;;;;;;;;;;;;;;;;;5022765;27;58490;-72
2023/12/31 04:51:31;;;;;;;;;;;;;;;;;;5018336;28;59590;-71
2023/12/31 04:53:57;;;;;;;;;;;;;;;;;;5018043;28;58651;-71
2023/12/31 04:56:22;;;;;;;;;;;;;;;;;;5018948;28;60459;-70
2023/12/31 04:58:47;;;;;;;;;;;;;;;;;;5015876;28;59277;-70
2023/12/31 05:01:12;;;;;;;;;;;;;;;;;;5019854;28;58357;-70
2023/12/31 05:03:37;;;;;;;;;;;;;;;;;;5014081;28;59723;-70
2023/12/31 05:06:02;;;;;;;;;;;;;;;;;;5018492;28;59821;-70
2023/12/31 05:08:27;;;;;;;;;;;;;;;;;;5020924;28;58721;-70
2023/12/31 05:10:53;;;;;;;;;;;;;;;;;;5017798;28;58587;-71
2023/12/31 05:13:19;;;;;;;;;;;;;;;;;;5016840;28;58763;-73
2023/12/31 05:15:44;;;;;;;;;;;;;;;;;;5017356;28;59700;-70
2023/12/31 05:18:09;;;;;;;;;;;;;;;;;;5016289;28;59735;-71
2023/12/31 05:20:34;;;;;;;;;;;;;;;;;;5016523;28;58923;-71
2023/12/31 05:22:59;;;;;;;;;;;;;;;;;;5020307;28;59322;-70
2023/12/31 05:25:24;;;;;;;;;;;;;;;;;;5019962;27;59902;-70
2023/12/31 05:27:49;;;;;;;;;;;;;;;;;;5018202;28;58499;-70
2023/12/31 05:30:14;;;;;;;;;;;;;;;;;;5020468;28;58876;-71
2023/12/31 05:32:40;;;;;;;;;;;;;;;;;;5018286;27;58664;-70
2023/12/31 05:35:05;;;;;;;;;;;;;;;;;;5015925;28;59513;-70
2023/12/31 05:37:30;;;;;;;;;;;;;;;;;;5021055;28;59346;-71
2023/12/31 05:39:55;;;;;;;;;;;;;;;;;;5017100;28;58445;-72
2023/12/31 05:42:20;;;;;;;;;;;;;;;;;;5017528;28;59576;-72
2023/12/31 05:44:45;;;;;;;;;;;;;;;;;;5018536;28;60709;-72
2023/12/31 05:47:10;;;;;;;;;;;;;;;;;;5019906;28;58845;-71
2023/12/31 05:49:35;;;;;;;;;;;;;;;;;;5020916;28;59678;-69
2023/12/31 05:52:00;;;;;;;;;;;;;;;;;;5016438;28;58803;-69
2023/12/31 05:54:25;;;;;;;;;;;;;;;;;;5019314;28;59478;-69
2023/12/31 05:56:50;;;;;;;;;;;;;;;;;;5018618;27;59793;-68
2023/12/31 05:59:16;;;;;;;;;;;;;;;;;;5017565;28;58496;-69
2023/12/31 06:01:41;;;;;;;;;;;;;;;;;;5017742;28;59458;-69
2023/12/31 06:04:06;;;;;;;;;;;;;;;;;;5018893;28;59881;-69
2023/12/31 06:06:31;;;;;;;;;;;;;;;;;;5021260;28;58808;-69
2023/12/31 06:08:56;;;;;;;;;;;;;;;;;;5015551;28;60196;-70
2023/12/31 06:11:21;;;;;;;;;;;;;;;;;;5015588;28;58817;-68
2023/12/31 06:13:46;;;;;;;;;;;;;;;;;;5018912;28;58548;-68
2023/12/31 06:16:12;;;;;;;;;;;;;;;;;;5020229;27;59154;-68
2023/12/31 06:18:37;;;;;;;;;;;;;;;;;;5019180;28;58720;-68
2023/12/31 06:21:02;;;;;;;;;;;;;;;;;;5016221;28;59470;-69
2023/12/31 06:23:27;;;;;;;;;;;;;;;;;;5022545;28;59927;-69
2023/12/31 06:25:52;;;;;;;;;;;;;;;;;;5022118;28;58393;-72
2023/12/31 06:28:17;;;;;;;;;;;;;;;;;;5023017;28;61092;-68
2023/12/31 06:30:42;;;;;;;;;;;;;;;;;;5020166;28;59821;-69
2023/12/31 06:33:07;;;;;;;;;;;;;;;;;;5020532;28;58519;-68
2023/12/31 06:35:32;;;;;;;;;;;;;;;;;;5017583;28;59443;-69
2023/12/31 06:37:57;;;;;;;;;;;;;;;;;;5022958;28;58558;-69
2023/12/31 06:40:22;;;;;;;;;;;;;;;;;;5023053;28;58594;-70
2023/12/31 06:42:47;;;;;;;;;;;;;;;;;;5019014;28;58920;-69
2023/12/31 06:45:13;;;;;;;;;;;;;;;;;;5019944;28;58642;-69
2023/12/31 06:47:38;;;;;;;;;;;;;;;;;;5022996;28;60065;-68
2023/12/31 06:50:03;;;;;;;;;;;;;;;;;;5020719;28;59312;-71
2023/12/31 06:52:28;;;;;;;;;;;;;;;;;;5018333;28;58373;-72
2023/12/31 06:54:53;;;;;;;;;;;;;;;;;;5017697;28;60138;-70
2023/12/31 06:57:18;;;;;;;;;;;;;;;;;;5024366;28;59014;-71
2023/12/31 06:59:43;;;;;;;;;;;;;;;;;;5022365;27;59467;-71
2023/12/31 07:02:08;;;;;;;;;;;;;;;;;;5020289;28;59931;-71
2023/12/31 07:04:33;;;;;;;;;;;;;;;;;;5022722;28;58611;-72
2023/12/31 07:06:58;;;;;;;;;;;;;;;;;;5022582;28;58999;-72
2023/12/31 07:09:24;;;;;;;;;;;;;;;;;;5018207;28;58466;-71
2023/12/31 07:11:49;;;;;;;;;;;;;;;;;;5020395;27;58715;-71
2023/12/31 07:14:14;;;;;;;;;;;;;;;;;;5021965;28;59354;-70
2023/12/31 07:16:39;;;;;;;;;;;;;;;;;;5017471;28;58968;-71
2023/12/31 07:19:04;;;;;;;;;;;;;;;;;;5015988;27;59197;-71
2023/12/31 07:21:29;;;;;;;;;;;;;;;;;;5022477;28;58809;-72
2023/12/31 07:23:54;;;;;;;;;;;;;;;;;;5019910;28;59567;-70
2023/12/31 07:26:19;;;;;;;;;;;;;;;;;;5022483;27;60325;-71
2023/12/31 07:28:45;;;;;;;;;;;;;;;;;;5016682;28;58898;-70
2023/12/31 07:31:10;;;;;;;;;;;;;;;;;;5022725;28;58586;-71
2023/12/31 07:33:35;;;;;;;;;;;;;;;;;;5021867;28;58748;-71
2023/12/31 07:36:00;;;;;;;;;;;;;;;;;;5023573;28;59276;-72
2023/12/31 07:38:25;;;;;;;;;;;;;;;;;;5024058;27;58959;-71
2023/12/31 07:40:50;;;;;;;;;;;;;;;;;;5020705;28;61203;-71
2023/12/31 07:43:16;;;;;;;;;;;;;;;;;;5017601;28;58764;-72
2023/12/31 07:45:41;;;;;;;;;;;;;;;;;;5017729;27;61395;-71
2023/12/31 07:48:08;;;;;;;;;;;;;;;;;;5018331;28;58890;-70
2023/12/31 07:50:34;;;;;;;;;;;;;;;;;;5020599;28;58858;-70
2023/12/31 07:52:59;;;;;;;;;;;;;;;;;;5018417;28;58487;-72
2023/12/31 07:55:24;;;;;;;;;;;;;;;;;;5029331;28;58688;-71
2023/12/31 07:57:49;;;;;;;;;;;;;;;;;;5019848;28;58736;-69
2023/12/31 08:00:14;;;;;;;;;;;;;;;;;;5021865;27;60090;-70
2023/12/31 08:02:40;;;;;;;;;;;;;;;;;;5016125;28;58728;-70
2023/12/31 08:05:05;;;;;;;;;;;;;;;;;;5019741;28;58577;-69
2023/12/31 08:07:30;;;;;;;;;;;;;;;;;;5016711;28;59244;-69
2023/12/31 08:09:56;;;;;;;;;;;;;;;;;;5018116;28;58814;-72
2023/12/31 08:12:21;;;;;;;;;;;;;;;;;;5020464;28;58977;-71
2023/12/31 08:14:46;;;;;;;;;;;;;;;;;;5012441;28;61227;-71
2023/12/31 08:17:11;;;;;;;;;;;;;;;;;;5016957;28;58264;-70
2023/12/31 08:19:36;;;;;;;;;;;;;;;;;;5020937;28;60014;-71
2023/12/31 08:22:01;;;;;;;;;;;;;;;;;;5021091;28;58629;-70
2023/12/31 08:24:26;;;;;;;;;;;;;;;;;;5018866;28;60297;-71
2023/12/31 08:26:51;;;;;;;;;;;;;;;;;;5016272;28;59758;-71
2023/12/31 08:29:16;;;;;;;;;;;;;;;;;;5014043;27;58571;-72
2023/12/31 08:31:41;;;;;;;;;;;;;;;;;;5018600;28;59451;-72
2023/12/31 08:34:06;;;;;;;;;;;;;;;;;;5020794;27;59024;-71
2023/12/31 08:36:31;;;;;;;;;;;;;;;;;;5018885;27;58289;-71
2023/12/31 08:38:56;;;;;;;;;;;;;;;;;;5015666;28;59691;-72
2023/12/31 08:41:22;;;;;;;;;;;;;;;;;;5021412;28;60110;-72
2023/12/31 08:43:47;;;;;;;;;;;;;;;;;;5016137;28;58314;-72
2023/12/31 08:46:12;;;;;;;;;;;;;;;;;;5013403;28;59075;-72
2023/12/31 08:48:37;;;;;;;;;;;;;;;;;;5021407;27;58516;-72
2023/12/31 08:51:02;;;;;;;;;;;;;;;;;;5016992;28;60626;-71
2023/12/31 08:53:27;;;;;;;;;;;;;;;;;;5016601;27;58980;-72
2023/12/31 08:55:52;;;;;;;;;;;;;;;;;;5014924;28;58543;-73
2023/12/31 08:58:17;;;;;;;;;;;;;;;;;;5021343;28;59233;-72
2023/12/31 09:00:43;;;;;;;;;;;;;;;;;;5019864;27;59232;-72
2023/12/31 09:03:08;;;;;;;;;;;;;;;;;;5017303;28;59417;-71
2023/12/31 09:05:33;;;;;;;;;;;;;;;;;;5018713;28;58929;-71
2023/12/31 09:07:58;;;;;;;;;;;;;;;;;;5022311;28;58775;-72
2023/12/31 09:10:23;;;;;;;;;;;;;;;;;;5021580;28;59371;-72
2023/12/31 09:12:48;;;;;;;;;;;;;;;;;;5015730;27;59817;-72
2023/12/31 09:15:13;;;;;;;;;;;;;;;;;;5018805;28;58478;-72
2023/12/31 09:17:38;;;;;;;;;;;;;;;;;;5020579;27;59443;-72
2023/12/31 09:20:05;;;;;;;;;;;;;;;;;;5018296;28;77461;-72
2023/12/31 09:22:31;;;;;;;;;;;;;;;;;;5018054;28;58389;-71
2023/12/31 09:24:56;;;;;;;;;;;;;;;;;;5020027;28;59546;-68
2023/12/31 09:27:21;;;;;;;;;;;;;;;;;;5019682;27;58645;-70
2023/12/31 09:29:46;;;;;;;;;;;;;;;;;;5016358;28;59356;-71
2023/12/31 09:32:11;;;;;;;;;;;;;;;;;;5018557;28;58888;-71
2023/12/31 09:34:36;;;;;;;;;;;;;;;;;;5020872;28;58348;-70
2023/12/31 09:37:02;;;;;;;;;;;;;;;;;;5015723;28;59290;-71
2023/12/31 09:39:27;;;;;;;;;;;;;;;;;;5017231;28;59028;-72
2023/12/31 09:41:52;;;;;;;;;;;;;;;;;;5018258;27;58882;-71
2023/12/31 09:44:17;;;;;;;;;;;;;;;;;;5017746;28;59895;-72
2023/12/31 09:46:42;;;;;;;;;;;;;;;;;;5020586;28;59129;-73
2023/12/31 09:49:07;;;;;;;;;;;;;;;;;;5018159;28;59525;-72
2023/12/31 09:51:32;;;;;;;;;;;;;;;;;;5022722;27;58811;-72
2023/12/31 09:53:57;;;;;;;;;;;;;;;;;;5021437;28;58470;-73
2023/12/31 09:56:23;;;;;;;;;;;;;;;;;;5020337;28;59506;-72
2023/12/31 09:58:50;;;;;;;;;;;;;;;;;;5015949;28;59011;-72
2023/12/31 10:01:15;;;;;;;;;;;;;;;;;;5018869;27;58651;-72
2023/12/31 10:03:40;;;;;;;;;;;;;;;;;;5018453;27;58924;-71
2023/12/31 10:06:05;;;;;;;;;;;;;;;;;;5017979;27;64911;-71
2023/12/31 10:08:30;;;;;;;;;;;;;;;;;;5019108;28;58702;-73
2023/12/31 10:10:55;;;;;;;;;;;;;;;;;;5020038;28;59915;-72
2023/12/31 10:13:20;;;;;;;;;;;;;;;;;;5020640;27;58480;-71
2023/12/31 10:15:45;;;;;;;;;;;;;;;;;;5021471;27;59487;-73
2023/12/31 10:18:10;;;;;;;;;;;;;;;;;;5019952;27;58996;-71
2023/12/31 10:20:36;;;;;;;;;;;;;;;;;;5020201;28;58376;-73
2023/12/31 10:23:02;;;;;;;;;;;;;;;;;;5019622;28;59738;-72
2023/12/31 10:25:28;;;;;;;;;;;;;;;;;;5018664;28;58469;-71
2023/12/31 10:27:53;;;;;;;;;;;;;;;;;;5021308;28;58403;-71
2023/12/31 10:30:18;;;;;;;;;;;;;;;;;;5019191;28;60003;-72
2023/12/31 10:32:43;;;;;;;;;;;;;;;;;;5016879;27;58860;-71
2023/12/31 10:35:08;;;;;;;;;;;;;;;;;;5022188;28;59251;-71
2023/12/31 10:37:35;;;;;;;;;;;;;;;;;;5020088;28;59708;-71
2023/12/31 10:40:00;;;;;;;;;;;;;;;;;;5023631;28;58678;-72
2023/12/31 10:42:25;;;;;;;;;;;;;;;;;;5021508;27;60220;-71
2023/12/31 10:44:53;;;;;;;;;;;;;;;;;;5021978;28;59742;-71
2023/12/31 10:47:18;;;;;;;;;;;;;;;;;;5024471;28;59305;-70
2023/12/31 10:49:43;;;;;;;;;;;;;;;;;;5019442;28;60387;-71
2023/12/31 10:52:08;;;;;;;;;;;;;;;;;;5020760;27;58831;-72
2023/12/31 10:54:33;;;;;;;;;;;;;;;;;;5021674;28;59343;-70
2023/12/31 10:56:58;;;;;;;;;;;;;;;;;;5023823;28;59184;-72
2023/12/31 10:59:23;;;;;;;;;;;;;;;;;;5017508;28;58701;-70
2023/12/31 11:01:48;;;;;;;;;;;;;;;;;;5020638;28;59325;-72
2023/12/31 11:04:14;;;;;;;;;;;;;;;;;;5020767;27;59026;-71
2023/12/31 11:06:39;;;;;;;;;;;;;;;;;;5020504;28;58732;-71
2023/12/31 11:09:04;;;;;;;;;;;;;;;;;;5018948;28;58639;-71
2023/12/31 11:11:29;;;;;;;;;;;;;;;;;;5019282;27;59007;-66
2023/12/31 11:13:55;;;;;;;;;;;;;;;;;;5023830;28;59666;-70
2023/12/31 11:16:20;;;;;;;;;;;;;;;;;;5024660;28;59635;-70
2023/12/31 11:18:45;;;;;;;;;;;;;;;;;;5016526;27;58322;-73
2023/12/31 11:21:10;;;;;;;;;;;;;;;;;;5016518;28;60335;-75
2023/12/31 11:23:35;;;;;;;;;;;;;;;;;;5023756;27;58561;-77
2023/12/31 11:26:00;;;;;;;;;;;;;;;;;;5024637;28;58759;-77
2023/12/31 11:28:25;;;;;;;;;;;;;;;;;;5023581;27;58965;-77
2023/12/31 11:30:51;;;;;;;;;;;;;;;;;;5023996;28;60377;-79
2023/12/31 11:33:16;;;;;;;;;;;;;;;;;;5023009;28;58576;-77
2023/12/31 11:35:41;;;;;;;;;;;;;;;;;;5023477;28;58763;-71
2023/12/31 11:38:06;;;;;;;;;;;;;;;;;;5025377;28;58620;-69
2023/12/31 11:40:32;;;;;;;;;;;;;;;;;;5024015;28;59366;-68
2023/12/31 11:42:57;;;;;;;;;;;;;;;;;;5021354;27;59145;-68
2023/12/31 11:45:22;;;;;;;;;;;;;;;;;;5024046;28;58736;-68
2023/12/31 11:47:47;;;;;;;;;;;;;;;;;;5023371;28;58961;-70
2023/12/31 11:50:12;;;;;;;;;;;;;;;;;;5023665;28;60011;-69
2023/12/31 11:52:37;;;;;;;;;;;;;;;;;;5022648;27;58566;-69
2023/12/31 11:55:03;;;;;;;;;;;;;;;;;;5024823;28;59421;-69
2023/12/31 11:57:28;;;;;;;;;;;;;;;;;;5022457;27;59533;-71
2023/12/31 11:59:53;;;;;;;;;;;;;;;;;;5024695;28;59050;-76
2023/12/31 12:02:18;;;;;;;;;;;;;;;;;;5021860;28;58917;-71
2023/12/31 12:04:43;;;;;;;;;;;;;;;;;;5024039;28;58756;-72
2023/12/31 12:07:09;;;;;;;;;;;;;;;;;;5024060;28;58899;-72
2023/12/31 12:09:36;;;;;;;;;;;;;;;;;;5022592;28;60110;-72
2023/12/31 12:12:01;;;;;;;;;;;;;;;;;;5021397;28;58808;-70
2023/12/31 12:14:26;;;;;;;;;;;;;;;;;;5023992;28;59207;-72
2023/12/31 12:16:52;;;;;;;;;;;;;;;;;;5023054;28;77021;-69
2023/12/31 12:19:18;;;;;;;;;;;;;;;;;;5023543;27;59554;-70
2023/12/31 12:21:43;;;;;;;;;;;;;;;;;;5022294;28;58626;-73
2023/12/31 12:24:08;;;;;;;;;;;;;;;;;;5023686;28;58642;-72
2023/12/31 12:26:33;;;;;;;;;;;;;;;;;;5022448;28;59498;-70
2023/12/31 12:28:58;;;;;;;;;;;;;;;;;;5021864;28;58687;-70
2023/12/31 12:31:23;;;;;;;;;;;;;;;;;;5023526;28;58431;-70
2023/12/31 12:33:48;;;;;;;;;;;;;;;;;;5022402;28;59430;-71
2023/12/31 12:36:13;;;;;;;;;;;;;;;;;;5021792;28;58880;-69
2023/12/31 12:38:39;;;;;;;;;;;;;;;;;;5021946;28;58634;-73
2023/12/31 12:41:04;;;;;;;;;;;;;;;;;;5022063;28;59014;-72
2023/12/31 12:43:30;;;;;;;;;;;;;;;;;;5021926;28;59096;-74
2023/12/31 12:45:55;;;;;;;;;;;;;;;;;;5023118;28;60433;-70
2023/12/31 12:48:20;;;;;;;;;;;;;;;;;;5021910;28;59827;-71
2023/12/31 12:50:47;;;;;;;;;;;;;;;;;;5021417;28;58860;-71
2023/12/31 12:53:12;;;;;;;;;;;;;;;;;;5020697;28;61286;-70
2023/12/31 12:55:37;;;;;;;;;;;;;;;;;;5021964;28;59836;-70
2023/12/31 12:58:04;;;;;;;;;;;;;;;;;;5022274;28;59173;-74
2023/12/31 13:00:29;;;;;;;;;;;;;;;;;;5022616;28;59450;-71
2023/12/31 13:02:55;;;;;;;;;;;;;;;;;;5023175;28;59497;-71
2023/12/31 13:05:20;;;;;;;;;;;;;;;;;;5022525;28;59473;-70
2023/12/31 13:07:45;;;;;;;;;;;;;;;;;;5022654;28;78564;-70
2023/12/31 13:10:10;;;;;;;;;;;;;;;;;;5022442;28;59354;-70
2023/12/31 13:12:35;;;;;;;;;;;;;;;;;;5020400;28;60307;-71
2023/12/31 13:15:00;;;;;;;;;;;;;;;;;;5021489;28;58983;-70
2023/12/31 13:17:25;;;;;;;;;;;;;;;;;;5020496;28;58673;-70
2023/12/31 13:19:53;;;;;;;;;;;;;;;;;;5022644;28;60144;-70
2023/12/31 13:22:19;;;;;;;;;;;;;;;;;;5020890;28;58941;-70
2023/12/31 13:24:44;;;;;;;;;;;;;;;;;;5021149;28;59708;-69
2023/12/31 13:27:12;;;;;;;;;;;;;;;;;;5021618;28;59917;-70
2023/12/31 13:29:37;;;;;;;;;;;;;;;;;;5022806;28;58827;-70
2023/12/31 13:32:03;;;;;;;;;;;;;;;;;;5023473;28;58744;-70
2023/12/31 13:34:28;;;;;;;;;;;;;;;;;;5020208;28;58376;-70
2023/12/31 13:36:53;;;;;;;;;;;;;;;;;;5022908;28;58652;-70
2023/12/31 13:39:18;;;;;;;;;;;;;;;;;;5020369;28;60372;-75
2023/12/31 13:41:43;;;;;;;;;;;;;;;;;;5022299;28;58874;-75
2023/12/31 13:44:09;;;;;;;;;;;;;;;;;;5023104;28;59877;-74
2023/12/31 13:46:34;;;;;;;;;;;;;;;;;;5020586;28;58888;-75
2023/12/31 13:48:59;;;;;;;;;;;;;;;;;;5022134;28;58663;-75
2023/12/31 13:51:24;;;;;;;;;;;;;;;;;;5021151;28;60357;-75
2023/12/31 13:53:49;;;;;;;;;;;;;;;;;;5021683;28;60850;-75
2023/12/31 13:56:15;;;;;;;;;;;;;;;;;;5022764;28;58714;-74
2023/12/31 13:58:40;;;;;;;;;;;;;;;;;;5020260;28;59671;-74
2023/12/31 14:01:05;;;;;;;;;;;;;;;;;;5019416;28;59858;-75
2023/12/31 14:03:30;;;;;;;;;;;;;;;;;;5021057;28;58798;-75
2023/12/31 14:05:55;;;;;;;;;;;;;;;;;;5020690;28;58864;-77
2023/12/31 14:08:20;;;;;;;;;;;;;;;;;;5020690;28;59057;-74
2023/12/31 14:10:45;;;;;;;;;;;;;;;;;;5020864;28;60688;-75
2023/12/31 14:13:10;;;;;;;;;;;;;;;;;;5020887;28;59186;-74
2023/12/31 14:15:35;;;;;;;;;;;;;;;;;;5020382;28;58274;-74
2023/12/31 14:18:01;;;;;;;;;;;;;;;;;;5021530;28;59513;-74
2023/12/31 14:20:26;;;;;;;;;;;;;;;;;;5021733;28;58987;-77
2023/12/31 14:22:51;;;;;;;;;;;;;;;;;;5021659;28;58717;-76
2023/12/31 14:25:16;;;;;;;;;;;;;;;;;;5021985;28;59397;-74
2023/12/31 14:27:41;;;;;;;;;;;;;;;;;;5023187;28;58309;-76
2023/12/31 14:30:07;;;;;;;;;;;;;;;;;;5022421;28;59758;-74
2023/12/31 14:32:32;;;;;;;;;;;;;;;;;;5020662;28;58619;-76
2023/12/31 14:34:57;;;;;;;;;;;;;;;;;;5023290;28;58685;-77
2023/12/31 14:37:23;;;;;;;;;;;;;;;;;;5026538;28;60203;-76
2023/12/31 14:39:48;;;;;;;;;;;;;;;;;;5024140;28;59200;-76
2023/12/31 14:42:14;;;;;;;;;;;;;;;;;;5025299;28;59064;-76
2023/12/31 14:44:39;;;;;;;;;;;;;;;;;;5023760;28;59670;-77
2023/12/31 14:47:05;;;;;;;;;;;;;;;;;;5025886;28;59415;-76
2023/12/31 14:49:30;;;;;;;;;;;;;;;;;;5025417;28;59684;-77
2023/12/31 14:51:55;;;;;;;;;;;;;;;;;;5024343;28;58785;-74
2023/12/31 14:54:20;;;;;;;;;;;;;;;;;;5023794;28;58881;-76
2023/12/31 14:56:45;;;;;;;;;;;;;;;;;;5026003;27;61155;-77
2023/12/31 14:59:10;;;;;;;;;;;;;;;;;;5026214;28;58966;-77
2023/12/31 15:01:35;;;;;;;;;;;;;;;;;;5024351;27;58799;-75
2023/12/31 15:04:00;;;;;;;;;;;;;;;;;;5022908;28;61255;-77
2023/12/31 15:06:25;;;;;;;;;;;;;;;;;;5023920;28;58970;-75
2023/12/31 15:08:53;;;;;;;;;;;;;;;;;;5026448;28;58299;-78
2023/12/31 15:11:19;;;;;;;;;;;;;;;;;;5022399;28;58976;-76
2023/12/31 15:13:44;;;;;;;;;;;;;;;;;;5025304;28;58641;-74
2023/12/31 15:16:09;;;;;;;;;;;;;;;;;;5025867;27;61358;-77
2023/12/31 15:18:34;;;;;;;;;;;;;;;;;;5024170;28;59528;-75
2023/12/31 15:20:59;;;;;;;;;;;;;;;;;;5024827;28;58759;-75
2023/12/31 15:23:26;;;;;;;;;;;;;;;;;;5024909;28;59499;-70
2023/12/31 15:25:53;;;;;;;;;;;;;;;;;;5022830;28;59959;-71
2023/12/31 15:28:18;;;;;;;;;;;;;;;;;;5025074;28;58917;-71
2023/12/31 15:30:43;;;;;;;;;;;;;;;;;;5023874;28;58712;-75
2023/12/31 15:33:08;;;;;;;;;;;;;;;;;;5023552;28;58353;-76
2023/12/31 15:35:34;;;;;;;;;;;;;;;;;;5024355;27;59450;-74
2023/12/31 15:38:01;;;;;;;;;;;;;;;;;;5026015;28;58948;-74
2023/12/31 15:40:26;;;;;;;;;;;;;;;;;;5024148;28;58769;-74
2023/12/31 15:42:52;;;;;;;;;;;;;;;;;;5023306;28;60840;-73
2023/12/31 15:45:17;;;;;;;;;;;;;;;;;;5023718;27;59952;-76
2023/12/31 15:47:42;;;;;;;;;;;;;;;;;;5023413;28;59743;-76
2023/12/31 15:50:07;;;;;;;;;;;;;;;;;;5023016;28;59468;-74
2023/12/31 15:52:32;;;;;;;;;;;;;;;;;;5021900;28;58526;-75
2023/12/31 15:54:57;;;;;;;;;;;;;;;;;;5021657;27;59299;-72
2023/12/31 15:57:22;;;;;;;;;;;;;;;;;;5021197;28;59025;-74
2023/12/31 15:59:50;;;;;;;;;;;;;;;;;;5022381;28;58671;-74
2023/12/31 16:02:18;;;;;;;;;;;;;;;;;;5023639;28;61114;-75
2023/12/31 16:04:43;;;;;;;;;;;;;;;;;;5023696;28;63201;-74
2023/12/31 16:07:08;;;;;;;;;;;;;;;;;;5023741;28;58424;-75
2023/12/31 16:09:33;;;;;;;;;;;;;;;;;;5022662;28;60056;-77
2023/12/31 16:11:58;;;;;;;;;;;;;;;;;;5023037;28;58832;-75
2023/12/31 16:14:23;;;;;;;;;;;;;;;;;;5024446;28;58368;-77
2023/12/31 16:16:48;;;;;;;;;;;;;;;;;;5022859;28;58845;-75
2023/12/31 16:19:14;;;;;;;;;;;;;;;;;;5024747;28;58380;-73
2023/12/31 16:21:39;;;;;;;;;;;;;;;;;;5023485;28;60366;-73
2023/12/31 16:24:05;;;;;;;;;;;;;;;;;;5021816;28;58476;-71
2023/12/31 16:26:30;;;;;;;;;;;;;;;;;;5023488;28;58785;-74
2023/12/31 16:28:55;;;;;;;;;;;;;;;;;;5024187;28;60288;-73
2023/12/31 16:31:20;;;;;;;;;;;;;;;;;;5022011;28;59163;-73